Black Eagle — WDJJ — position and weather

sailwx.info

Track history (hours):
 
Tides and Currents Weather Stations Pressure Air Temp Water Temp Dewpoint Dewpoint Depression Visibility Wind Speed Wind Dir Waves Ship Positions

Black Eagle

Owner: Sealift Inc., Oyster Bay, NY. More information available from US FCC via Universal Licensing System and Coast Guard Vessel Documentation Center.

Last reported at 2017-Feb-25 01:33 UTC. Time now 2017-Feb-25 02:32 UTC.
Position N 30°13' W 093°16'.

Length 190 m; draft 7 m.

Type: Cargo ship. MMSI: 369542000.

Date/timePositionNaut miles runAvg speedWind from/ knotsBaromVisibWave heightAir tempDewpointWater temp
2017-Feb-25 01:33N 30°13' W 093°16'4 4.1
2017-Feb-25 00:33N 30°10' W 093°19'6 5.5
2017-Feb-24 23:33N 30°04' W 093°20'6 6.3
2017-Feb-24 22:33N 29°58' W 093°20'9 9.1
2017-Feb-24 21:33N 29°49' W 093°21'25 3.0
2017-Feb-24 13:12N 29°35' W 093°44'4 5.7
2017-Feb-24 12:33N 29°31' W 093°42'8 7.9
2017-Feb-24 11:33N 29°24' W 093°40'8 8.0
2017-Feb-24 10:33N 29°16' W 093°40'1111.1
2017-Feb-24 09:34N 29°05' W 093°37'1211.7
2017-Feb-24 08:33N 28°56' W 093°29'1211.8
2017-Feb-24 07:33N 28°46' W 093°21'1211.9
2017-Feb-24 06:34N 28°37' W 093°12'4711.7
2017-Feb-24 02:33N 27°59' W 092°40'  
Track history (hours):
 
Tides and Currents Weather Stations Pressure Air Temp Water Temp Dewpoint Dewpoint Depression Visibility Wind Speed Wind Dir Waves Ship Positions

Black Eagle

Owner: Sealift Inc., Oyster Bay, NY. More information available from US FCC via Universal Licensing System and Coast Guard Vessel Documentation Center.

Last reported at 2017-Feb-25 01:33 UTC. Time now 2017-Feb-25 02:32 UTC.
Position N 30°13' W 093°16'.

Length 190 m; draft 7 m.

Type: Cargo ship. MMSI: 369542000.

Date/timePositionNaut miles runAvg speedWind from/ knotsBaromVisibWave heightAir tempDewpointWater temp
2017-Feb-25 01:33N 30°13' W 093°16'4 4.1
2017-Feb-25 00:33N 30°10' W 093°19'6 5.5
2017-Feb-24 23:33N 30°04' W 093°20'6 6.3
2017-Feb-24 22:33N 29°58' W 093°20'9 9.1
2017-Feb-24 21:33N 29°49' W 093°21'25 3.0
2017-Feb-24 13:12N 29°35' W 093°44'4 5.7
2017-Feb-24 12:33N 29°31' W 093°42'8 7.9
2017-Feb-24 11:33N 29°24' W 093°40'8 8.0
2017-Feb-24 10:33N 29°16' W 093°40'1111.1
2017-Feb-24 09:34N 29°05' W 093°37'1211.7
2017-Feb-24 08:33N 28°56' W 093°29'1211.8
2017-Feb-24 07:33N 28°46' W 093°21'1211.9
2017-Feb-24 06:34N 28°37' W 093°12'4711.7
2017-Feb-24 02:33N 27°59' W 092°40'  

Dump ship's entire track history